createdAt,value
2023-08-29T00:10:45.295Z,100
2023-08-29T00:39:07.587Z,100
2023-08-29T01:07:45.915Z,100
2023-08-29T01:36:14.184Z,100
2023-08-29T02:04:35.606Z,100
2023-08-29T02:33:14.254Z,100
2023-08-29T03:01:36.989Z,100
2023-08-29T03:30:03.472Z,100
2023-08-29T03:58:07.220Z,100
2023-08-29T04:26:26.105Z,100
2023-08-29T04:55:12.538Z,100
2023-08-29T05:52:17.725Z,100
2023-08-29T06:20:36.888Z,100
2023-08-29T06:48:56.794Z,100
2023-08-29T07:17:19.280Z,100
2023-08-29T07:45:32.167Z,100
2023-08-29T08:14:02.749Z,95.6
2023-08-29T08:42:45.330Z,88.43
2023-08-29T09:11:02.598Z,84.7
2023-08-29T09:39:58.663Z,84.45
2023-08-29T10:08:38.300Z,73.85
2023-08-29T10:37:18.643Z,78.61
2023-08-29T11:05:52.396Z,73.03
2023-08-29T11:34:27.318Z,68.82
2023-08-29T12:02:45.572Z,70.05
2023-08-29T12:30:47.227Z,63.38
2023-08-29T12:58:45.700Z,64.89
2023-08-29T13:26:51.790Z,65.84
2023-08-29T13:55:25.124Z,70.54
2023-08-29T14:23:39.757Z,66.61
2023-08-29T14:52:12.595Z,66.08
2023-08-29T15:20:05.066Z,71.16
2023-08-29T15:48:18.301Z,73.75
2023-08-29T16:16:34.525Z,75.78
2023-08-29T16:44:44.377Z,74.17
2023-08-29T17:13:04.300Z,75.69
2023-08-29T17:41:29.817Z,75.59
2023-08-29T18:09:43.929Z,78.68
2023-08-29T18:38:13.729Z,82.63
2023-08-29T19:06:36.803Z,90.9
2023-08-29T19:35:12.791Z,93.21
2023-08-29T20:03:46.047Z,94.08
2023-08-29T20:32:08.550Z,96.41
2023-08-29T21:00:32.517Z,100
2023-08-29T21:29:13.613Z,100
2023-08-29T21:57:44.151Z,100
2023-08-29T22:26:19.779Z,100
2023-08-29T22:54:59.217Z,100
2023-08-29T23:23:57.382Z,100
2023-08-29T23:52:46.202Z,100
